sensor_id;sensor_type;location;lat;lon;timestamp;temperature;humidity
22108;DHT22;11220;48.812;9.128;2024-03-08T00:00:17;18.00;70.50
22108;DHT22;11220;48.812;9.128;2024-03-08T00:02:47;18.00;70.50
22108;DHT22;11220;48.812;9.128;2024-03-08T00:05:13;18.00;70.50
22108;DHT22;11220;48.812;9.128;2024-03-08T00:07:39;18.00;70.50
22108;DHT22;11220;48.812;9.128;2024-03-08T00:10:07;17.90;70.50
22108;DHT22;11220;48.812;9.128;2024-03-08T00:12:44;17.90;70.50
22108;DHT22;11220;48.812;9.128;2024-03-08T00:15:14;17.90;70.50
22108;DHT22;11220;48.812;9.128;2024-03-08T00:17:41;17.90;70.50
22108;DHT22;11220;48.812;9.128;2024-03-08T00:20:07;17.90;70.60
22108;DHT22;11220;48.812;9.128;2024-03-08T00:22:37;17.90;70.50
22108;DHT22;11220;48.812;9.128;2024-03-08T00:25:06;17.90;70.60
22108;DHT22;11220;48.812;9.128;2024-03-08T00:27:35;17.90;70.60
22108;DHT22;11220;48.812;9.128;2024-03-08T00:30:01;17.90;70.60
22108;DHT22;11220;48.812;9.128;2024-03-08T00:32:27;17.90;70.60
22108;DHT22;11220;48.812;9.128;2024-03-08T00:34:53;17.80;70.50
22108;DHT22;11220;48.812;9.128;2024-03-08T00:37:20;17.90;70.60
22108;DHT22;11220;48.812;9.128;2024-03-08T00:39:45;17.80;70.60
22108;DHT22;11220;48.812;9.128;2024-03-08T00:42:11;17.80;71.50
22108;DHT22;11220;48.812;9.128;2024-03-08T00:44:36;17.80;70.60
22108;DHT22;11220;48.812;9.128;2024-03-08T00:47:02;17.80;70.50
22108;DHT22;11220;48.812;9.128;2024-03-08T00:49:28;17.80;70.60
22108;DHT22;11220;48.812;9.128;2024-03-08T00:51:54;17.80;70.60
22108;DHT22;11220;48.812;9.128;2024-03-08T00:54:19;17.80;70.60
22108;DHT22;11220;48.812;9.128;2024-03-08T00:56:45;17.80;70.60
22108;DHT22;11220;48.812;9.128;2024-03-08T00:59:11;17.80;70.60
22108;DHT22;11220;48.812;9.128;2024-03-08T01:01:36;17.70;70.60
22108;DHT22;11220;48.812;9.128;2024-03-08T01:04:02;17.70;70.60
22108;DHT22;11220;48.812;9.128;2024-03-08T01:06:27;17.70;70.60
22108;DHT22;11220;48.812;9.128;2024-03-08T01:08:53;17.70;70.60
22108;DHT22;11220;48.812;9.128;2024-03-08T01:11:18;17.70;70.60
22108;DHT22;11220;48.812;9.128;2024-03-08T01:13:44;17.70;70.60
22108;DHT22;11220;48.812;9.128;2024-03-08T01:16:12;17.70;70.60
22108;DHT22;11220;48.812;9.128;2024-03-08T01:18:38;17.70;70.60
22108;DHT22;11220;48.812;9.128;2024-03-08T01:21:04;17.70;70.70
22108;DHT22;11220;48.812;9.128;2024-03-08T01:23:29;17.70;70.70
22108;DHT22;11220;48.812;9.128;2024-03-08T01:25:55;17.60;70.60
22108;DHT22;11220;48.812;9.128;2024-03-08T01:28:24;17.60;70.60
22108;DHT22;11220;48.812;9.128;2024-03-08T01:30:50;17.60;70.60
22108;DHT22;11220;48.812;9.128;2024-03-08T01:33:23;17.60;70.60
22108;DHT22;11220;48.812;9.128;2024-03-08T01:35:51;17.60;70.70
22108;DHT22;11220;48.812;9.128;2024-03-08T01:38:16;17.60;70.60
22108;DHT22;11220;48.812;9.128;2024-03-08T01:40:42;17.60;70.70
22108;DHT22;11220;48.812;9.128;2024-03-08T01:45:42;17.60;70.70
22108;DHT22;11220;48.812;9.128;2024-03-08T01:48:08;17.60;70.70
22108;DHT22;11220;48.812;9.128;2024-03-08T01:50:33;17.60;70.80
22108;DHT22;11220;48.812;9.128;2024-03-08T01:52:59;17.50;70.70
22108;DHT22;11220;48.812;9.128;2024-03-08T01:55:25;17.50;70.80
22108;DHT22;11220;48.812;9.128;2024-03-08T01:57:51;17.50;70.70
22108;DHT22;11220;48.812;9.128;2024-03-08T02:00:17;17.50;70.70
22108;DHT22;11220;48.812;9.128;2024-03-08T02:02:46;17.50;70.70
22108;DHT22;11220;48.812;9.128;2024-03-08T02:05:14;17.50;71.80
22108;DHT22;11220;48.812;9.128;2024-03-08T02:07:43;17.50;70.80
22108;DHT22;11220;48.812;9.128;2024-03-08T02:10:11;17.50;70.80
22108;DHT22;11220;48.812;9.128;2024-03-08T02:12:38;17.40;70.70
22108;DHT22;11220;48.812;9.128;2024-03-08T02:15:04;17.40;70.70
22108;DHT22;11220;48.812;9.128;2024-03-08T02:17:32;17.50;70.80
22108;DHT22;11220;48.812;9.128;2024-03-08T02:19:59;17.40;71.70
22108;DHT22;11220;48.812;9.128;2024-03-08T02:22:27;17.50;70.90
22108;DHT22;11220;48.812;9.128;2024-03-08T02:24:54;17.50;70.90
22108;DHT22;11220;48.812;9.128;2024-03-08T02:27:24;17.50;70.90
22108;DHT22;11220;48.812;9.128;2024-03-08T02:29:52;17.40;70.80
22108;DHT22;11220;48.812;9.128;2024-03-08T02:32:21;17.40;70.70
22108;DHT22;11220;48.812;9.128;2024-03-08T02:34:47;17.40;71.70
22108;DHT22;11220;48.812;9.128;2024-03-08T02:37:13;17.40;70.80
22108;DHT22;11220;48.812;9.128;2024-03-08T02:39:38;17.40;70.80
22108;DHT22;11220;48.812;9.128;2024-03-08T02:42:04;17.40;70.80
22108;DHT22;11220;48.812;9.128;2024-03-08T02:44:29;17.30;70.80
22108;DHT22;11220;48.812;9.128;2024-03-08T02:46:55;17.40;70.80
22108;DHT22;11220;48.812;9.128;2024-03-08T02:49:21;17.30;70.80
22108;DHT22;11220;48.812;9.128;2024-03-08T02:51:46;17.30;70.80
22108;DHT22;11220;48.812;9.128;2024-03-08T02:54:12;17.30;70.80
22108;DHT22;11220;48.812;9.128;2024-03-08T02:56:37;17.30;70.70
22108;DHT22;11220;48.812;9.128;2024-03-08T02:59:03;17.30;70.70
22108;DHT22;11220;48.812;9.128;2024-03-08T03:01:28;17.30;70.80
22108;DHT22;11220;48.812;9.128;2024-03-08T03:03:54;17.30;70.80
22108;DHT22;11220;48.812;9.128;2024-03-08T03:06:19;17.30;70.70
22108;DHT22;11220;48.812;9.128;2024-03-08T03:08:46;17.30;70.80
22108;DHT22;11220;48.812;9.128;2024-03-08T03:11:12;17.30;70.70
22108;DHT22;11220;48.812;9.128;2024-03-08T03:13:39;17.20;70.60
22108;DHT22;11220;48.812;9.128;2024-03-08T03:16:05;17.30;70.70
22108;DHT22;11220;48.812;9.128;2024-03-08T03:18:30;17.30;70.80
22108;DHT22;11220;48.812;9.128;2024-03-08T03:20:58;17.30;70.70
22108;DHT22;11220;48.812;9.128;2024-03-08T03:23:23;17.20;71.60
22108;DHT22;11220;48.812;9.128;2024-03-08T03:25:51;17.20;70.70
22108;DHT22;11220;48.812;9.128;2024-03-08T03:28:17;17.20;70.70
22108;DHT22;11220;48.812;9.128;2024-03-08T03:30:45;17.20;70.70
22108;DHT22;11220;48.812;9.128;2024-03-08T03:33:12;17.20;70.70
22108;DHT22;11220;48.812;9.128;2024-03-08T03:35:38;17.20;70.60
22108;DHT22;11220;48.812;9.128;2024-03-08T03:38:03;17.20;70.60
22108;DHT22;11220;48.812;9.128;2024-03-08T03:40:36;17.10;70.60
22108;DHT22;11220;48.812;9.128;2024-03-08T03:43:02;17.20;70.60
22108;DHT22;11220;48.812;9.128;2024-03-08T03:45:29;17.10;70.60
22108;DHT22;11220;48.812;9.128;2024-03-08T03:47:54;17.10;70.70
22108;DHT22;11220;48.812;9.128;2024-03-08T03:50:21;17.10;70.60
22108;DHT22;11220;48.812;9.128;2024-03-08T03:52:47;17.10;70.60
22108;DHT22;11220;48.812;9.128;2024-03-08T03:55:14;17.10;70.60
22108;DHT22;11220;48.812;9.128;2024-03-08T03:57:40;17.10;70.60
22108;DHT22;11220;48.812;9.128;2024-03-08T04:00:06;17.10;70.60
22108;DHT22;11220;48.812;9.128;2024-03-08T04:02:36;17.10;70.60
22108;DHT22;11220;48.812;9.128;2024-03-08T04:05:02;17.10;70.60
22108;DHT22;11220;48.812;9.128;2024-03-08T04:07:28;17.10;70.60
22108;DHT22;11220;48.812;9.128;2024-03-08T04:09:53;17.10;70.60
22108;DHT22;11220;48.812;9.128;2024-03-08T04:12:19;17.10;70.60
22108;DHT22;11220;48.812;9.128;2024-03-08T04:14:44;17.00;70.50
22108;DHT22;11220;48.812;9.128;2024-03-08T04:17:10;17.10;70.60
22108;DHT22;11220;48.812;9.128;2024-03-08T04:19:38;17.00;70.60
22108;DHT22;11220;48.812;9.128;2024-03-08T04:22:05;17.00;70.60
22108;DHT22;11220;48.812;9.128;2024-03-08T04:24:33;17.00;70.60
22108;DHT22;11220;48.812;9.128;2024-03-08T04:26:58;17.00;70.50
22108;DHT22;11220;48.812;9.128;2024-03-08T04:29:24;17.00;71.50
22108;DHT22;11220;48.812;9.128;2024-03-08T04:31:50;17.00;70.60
22108;DHT22;11220;48.812;9.128;2024-03-08T04:34:20;17.00;70.60
22108;DHT22;11220;48.812;9.128;2024-03-08T04:36:47;17.00;70.60
22108;DHT22;11220;48.812;9.128;2024-03-08T04:39:13;17.00;70.70
22108;DHT22;11220;48.812;9.128;2024-03-08T04:41:39;17.00;70.60
22108;DHT22;11220;48.812;9.128;2024-03-08T04:44:05;17.00;70.60
22108;DHT22;11220;48.812;9.128;2024-03-08T04:46:31;16.90;70.60
22108;DHT22;11220;48.812;9.128;2024-03-08T04:48:56;16.90;70.50
22108;DHT22;11220;48.812;9.128;2024-03-08T04:51:24;16.90;70.50
22108;DHT22;11220;48.812;9.128;2024-03-08T04:53:50;17.00;70.60
22108;DHT22;11220;48.812;9.128;2024-03-08T04:56:15;16.90;70.50
22108;DHT22;11220;48.812;9.128;2024-03-08T04:58:41;16.90;70.60
22108;DHT22;11220;48.812;9.128;2024-03-08T05:01:06;16.90;70.60
22108;DHT22;11220;48.812;9.128;2024-03-08T05:03:35;16.90;70.60
22108;DHT22;11220;48.812;9.128;2024-03-08T05:06:01;16.90;70.60
22108;DHT22;11220;48.812;9.128;2024-03-08T05:08:26;16.90;70.60
22108;DHT22;11220;48.812;9.128;2024-03-08T05:10:52;16.90;70.60
22108;DHT22;11220;48.812;9.128;2024-03-08T05:13:17;16.90;70.60
22108;DHT22;11220;48.812;9.128;2024-03-08T05:15:44;16.90;70.60
22108;DHT22;11220;48.812;9.128;2024-03-08T05:18:09;16.90;70.60
22108;DHT22;11220;48.812;9.128;2024-03-08T05:20:36;16.90;70.60
22108;DHT22;11220;48.812;9.128;2024-03-08T05:23:02;16.90;70.60
22108;DHT22;11220;48.812;9.128;2024-03-08T05:25:28;16.90;70.60
22108;DHT22;11220;48.812;9.128;2024-03-08T05:27:54;16.80;70.60
22108;DHT22;11220;48.812;9.128;2024-03-08T05:30:19;16.80;70.60
22108;DHT22;11220;48.812;9.128;2024-03-08T05:32:47;16.80;70.60
22108;DHT22;11220;48.812;9.128;2024-03-08T05:35:12;16.80;70.60
22108;DHT22;11220;48.812;9.128;2024-03-08T05:37:38;16.80;70.60
22108;DHT22;11220;48.812;9.128;2024-03-08T05:40:05;16.80;70.60
22108;DHT22;11220;48.812;9.128;2024-03-08T05:42:37;16.80;70.40
22108;DHT22;11220;48.812;9.128;2024-03-08T05:45:04;16.80;70.40
22108;DHT22;11220;48.812;9.128;2024-03-08T05:47:31;16.80;70.40
22108;DHT22;11220;48.812;9.128;2024-03-08T05:49:58;16.80;70.40
22108;DHT22;11220;48.812;9.128;2024-03-08T05:52:24;16.80;70.40
22108;DHT22;11220;48.812;9.128;2024-03-08T05:54:51;16.80;70.10
22108;DHT22;11220;48.812;9.128;2024-03-08T05:57:17;16.80;70.00
22108;DHT22;11220;48.812;9.128;2024-03-08T05:59:42;16.90;70.00
22108;DHT22;11220;48.812;9.128;2024-03-08T06:02:08;16.80;69.90
22108;DHT22;11220;48.812;9.128;2024-03-08T06:04:34;16.90;69.80
22108;DHT22;11220;48.812;9.128;2024-03-08T06:06:59;16.90;69.80
22108;DHT22;11220;48.812;9.128;2024-03-08T06:09:25;16.90;69.80
22108;DHT22;11220;48.812;9.128;2024-03-08T06:11:52;16.90;69.70
22108;DHT22;11220;48.812;9.128;2024-03-08T06:14:18;16.90;69.70
22108;DHT22;11220;48.812;9.128;2024-03-08T06:16:44;17.00;69.90
22108;DHT22;11220;48.812;9.128;2024-03-08T06:19:10;17.00;69.80
22108;DHT22;11220;48.812;9.128;2024-03-08T06:21:36;17.00;69.80
22108;DHT22;11220;48.812;9.128;2024-03-08T06:24:01;17.10;69.90
22108;DHT22;11220;48.812;9.128;2024-03-08T06:26:27;17.10;70.20
22108;DHT22;11220;48.812;9.128;2024-03-08T06:28:54;17.10;70.50
22108;DHT22;11220;48.812;9.128;2024-03-08T06:31:20;17.10;70.60
22108;DHT22;11220;48.812;9.128;2024-03-08T06:33:45;17.20;70.30
22108;DHT22;11220;48.812;9.128;2024-03-08T06:36:11;17.20;69.50
22108;DHT22;11220;48.812;9.128;2024-03-08T06:38:37;17.20;68.80
22108;DHT22;11220;48.812;9.128;2024-03-08T06:41:10;17.20;68.50
22108;DHT22;11220;48.812;9.128;2024-03-08T06:43:40;17.30;68.30
22108;DHT22;11220;48.812;9.128;2024-03-08T06:46:06;17.30;68.30
22108;DHT22;11220;48.812;9.128;2024-03-08T06:48:32;17.30;68.20
22108;DHT22;11220;48.812;9.128;2024-03-08T06:50:57;17.40;68.30
22108;DHT22;11220;48.812;9.128;2024-03-08T06:53:23;17.40;68.30
22108;DHT22;11220;48.812;9.128;2024-03-08T06:55:50;17.50;68.30
22108;DHT22;11220;48.812;9.128;2024-03-08T06:58:15;17.50;69.20
22108;DHT22;11220;48.812;9.128;2024-03-08T07:00:41;17.50;68.10
22108;DHT22;11220;48.812;9.128;2024-03-08T07:03:08;17.50;68.10
22108;DHT22;11220;48.812;9.128;2024-03-08T07:05:37;17.60;68.20
22108;DHT22;11220;48.812;9.128;2024-03-08T07:08:03;17.60;68.10
22108;DHT22;11220;48.812;9.128;2024-03-08T07:10:29;17.60;68.10
22108;DHT22;11220;48.812;9.128;2024-03-08T07:12:54;17.70;68.20
22108;DHT22;11220;48.812;9.128;2024-03-08T07:15:21;17.70;68.30
22108;DHT22;11220;48.812;9.128;2024-03-08T07:17:48;17.70;68.20
22108;DHT22;11220;48.812;9.128;2024-03-08T07:20:14;17.70;68.80
22108;DHT22;11220;48.812;9.128;2024-03-08T07:22:44;17.80;68.30
22108;DHT22;11220;48.812;9.128;2024-03-08T07:25:10;17.80;68.30
22108;DHT22;11220;48.812;9.128;2024-03-08T07:27:35;17.90;68.30
22108;DHT22;11220;48.812;9.128;2024-03-08T07:30:02;17.80;68.30
22108;DHT22;11220;48.812;9.128;2024-03-08T07:32:28;17.90;68.30
22108;DHT22;11220;48.812;9.128;2024-03-08T07:34:55;17.90;68.40
22108;DHT22;11220;48.812;9.128;2024-03-08T07:37:21;17.90;68.30
22108;DHT22;11220;48.812;9.128;2024-03-08T07:39:47;17.90;68.30
22108;DHT22;11220;48.812;9.128;2024-03-08T07:42:12;18.00;68.30
22108;DHT22;11220;48.812;9.128;2024-03-08T07:44:38;18.00;68.20
22108;DHT22;11220;48.812;9.128;2024-03-08T07:47:04;18.00;68.10
22108;DHT22;11220;48.812;9.128;2024-03-08T07:49:30;18.10;68.20
22108;DHT22;11220;48.812;9.128;2024-03-08T07:51:58;18.10;68.10
22108;DHT22;11220;48.812;9.128;2024-03-08T07:54:24;18.10;68.10
22108;DHT22;11220;48.812;9.128;2024-03-08T07:56:51;18.10;68.10
22108;DHT22;11220;48.812;9.128;2024-03-08T07:59:18;18.10;68.10
22108;DHT22;11220;48.812;9.128;2024-03-08T08:01:43;18.20;68.20
22108;DHT22;11220;48.812;9.128;2024-03-08T08:04:10;18.20;68.30
22108;DHT22;11220;48.812;9.128;2024-03-08T08:06:38;18.20;68.20
22108;DHT22;11220;48.812;9.128;2024-03-08T08:09:06;18.20;68.20
22108;DHT22;11220;48.812;9.128;2024-03-08T08:11:35;18.20;68.30
22108;DHT22;11220;48.812;9.128;2024-03-08T08:14:31;18.20;68.20
22108;DHT22;11220;48.812;9.128;2024-03-08T08:16:57;18.20;68.20
22108;DHT22;11220;48.812;9.128;2024-03-08T08:19:25;18.20;68.20
22108;DHT22;11220;48.812;9.128;2024-03-08T08:21:52;18.30;68.30
22108;DHT22;11220;48.812;9.128;2024-03-08T08:24:17;18.30;68.30
22108;DHT22;11220;48.812;9.128;2024-03-08T08:26:43;18.30;68.40
22108;DHT22;11220;48.812;9.128;2024-03-08T08:29:09;18.30;68.40
22108;DHT22;11220;48.812;9.128;2024-03-08T08:31:35;18.30;68.40
22108;DHT22;11220;48.812;9.128;2024-03-08T08:34:01;18.30;68.50
22108;DHT22;11220;48.812;9.128;2024-03-08T08:36:28;18.30;68.50
22108;DHT22;11220;48.812;9.128;2024-03-08T08:38:55;18.30;68.60
22108;DHT22;11220;48.812;9.128;2024-03-08T08:41:21;18.30;68.70
22108;DHT22;11220;48.812;9.128;2024-03-08T08:43:48;18.30;68.70
22108;DHT22;11220;48.812;9.128;2024-03-08T08:46:17;18.30;68.70
22108;DHT22;11220;48.812;9.128;2024-03-08T08:48:42;18.40;68.80
22108;DHT22;11220;48.812;9.128;2024-03-08T08:51:10;18.30;68.70
22108;DHT22;11220;48.812;9.128;2024-03-08T08:53:38;18.30;68.70
22108;DHT22;11220;48.812;9.128;2024-03-08T08:56:06;18.40;68.70
22108;DHT22;11220;48.812;9.128;2024-03-08T08:58:33;18.40;68.70
22108;DHT22;11220;48.812;9.128;2024-03-08T09:00:58;18.40;68.70
22108;DHT22;11220;48.812;9.128;2024-03-08T09:03:25;18.40;68.60
22108;DHT22;11220;48.812;9.128;2024-03-08T09:05:52;18.40;68.60
22108;DHT22;11220;48.812;9.128;2024-03-08T09:08:18;18.50;68.60
22108;DHT22;11220;48.812;9.128;2024-03-08T09:10:43;18.50;68.50
22108;DHT22;11220;48.812;9.128;2024-03-08T09:13:09;18.50;68.40
22108;DHT22;11220;48.812;9.128;2024-03-08T09:15:35;18.50;68.50
22108;DHT22;11220;48.812;9.128;2024-03-08T09:18:01;18.50;68.50
22108;DHT22;11220;48.812;9.128;2024-03-08T09:20:27;18.50;68.50
22108;DHT22;11220;48.812;9.128;2024-03-08T09:22:53;18.50;68.60
22108;DHT22;11220;48.812;9.128;2024-03-08T09:25:20;18.50;68.60
22108;DHT22;11220;48.812;9.128;2024-03-08T09:27:45;18.50;68.80
22108;DHT22;11220;48.812;9.128;2024-03-08T09:30:12;18.60;68.90
22108;DHT22;11220;48.812;9.128;2024-03-08T09:32:38;18.60;68.90
22108;DHT22;11220;48.812;9.128;2024-03-08T09:35:04;18.60;69.20
22108;DHT22;11220;48.812;9.128;2024-03-08T09:37:33;18.60;69.40
22108;DHT22;11220;48.812;9.128;2024-03-08T09:39:59;18.60;69.50
22108;DHT22;11220;48.812;9.128;2024-03-08T09:42:24;18.60;69.50
22108;DHT22;11220;48.812;9.128;2024-03-08T09:44:51;18.60;69.50
22108;DHT22;11220;48.812;9.128;2024-03-08T09:47:18;18.60;69.50
22108;DHT22;11220;48.812;9.128;2024-03-08T09:49:48;18.70;69.70
22108;DHT22;11220;48.812;9.128;2024-03-08T09:52:14;18.60;69.50
22108;DHT22;11220;48.812;9.128;2024-03-08T09:54:40;18.70;69.50
22108;DHT22;11220;48.812;9.128;2024-03-08T09:57:09;18.70;69.50
22108;DHT22;11220;48.812;9.128;2024-03-08T09:59:35;18.70;69.50
22108;DHT22;11220;48.812;9.128;2024-03-08T10:02:01;18.70;69.50
22108;DHT22;11220;48.812;9.128;2024-03-08T10:04:28;18.70;69.50
22108;DHT22;11220;48.812;9.128;2024-03-08T10:07:00;18.70;69.50
22108;DHT22;11220;48.812;9.128;2024-03-08T10:09:25;18.70;69.60
22108;DHT22;11220;48.812;9.128;2024-03-08T10:11:56;18.70;69.60
22108;DHT22;11220;48.812;9.128;2024-03-08T10:14:23;18.70;69.50
22108;DHT22;11220;48.812;9.128;2024-03-08T10:16:49;18.70;70.10
22108;DHT22;11220;48.812;9.128;2024-03-08T10:19:14;18.70;69.50
22108;DHT22;11220;48.812;9.128;2024-03-08T10:21:48;18.80;69.60
22108;DHT22;11220;48.812;9.128;2024-03-08T10:24:14;18.70;69.50
22108;DHT22;11220;48.812;9.128;2024-03-08T10:26:40;18.80;69.60
22108;DHT22;11220;48.812;9.128;2024-03-08T10:29:05;18.80;69.50
22108;DHT22;11220;48.812;9.128;2024-03-08T10:31:33;18.80;69.50
22108;DHT22;11220;48.812;9.128;2024-03-08T10:33:58;18.80;69.50
22108;DHT22;11220;48.812;9.128;2024-03-08T10:36:24;18.80;69.50
22108;DHT22;11220;48.812;9.128;2024-03-08T10:38:51;18.80;69.50
22108;DHT22;11220;48.812;9.128;2024-03-08T10:41:19;18.80;69.60
22108;DHT22;11220;48.812;9.128;2024-03-08T10:44:11;18.90;69.60
22108;DHT22;11220;48.812;9.128;2024-03-08T10:49:17;18.90;69.90
22108;DHT22;11220;48.812;9.128;2024-03-08T10:51:43;18.90;69.50
22108;DHT22;11220;48.812;9.128;2024-03-08T10:54:10;18.90;69.50
22108;DHT22;11220;48.812;9.128;2024-03-08T10:56:37;18.90;69.50
22108;DHT22;11220;48.812;9.128;2024-03-08T10:59:03;18.90;69.50
22108;DHT22;11220;48.812;9.128;2024-03-08T11:01:30;18.90;69.50
22108;DHT22;11220;48.812;9.128;2024-03-08T11:03:55;18.90;69.50
22108;DHT22;11220;48.812;9.128;2024-03-08T11:06:29;18.90;69.50
22108;DHT22;11220;48.812;9.128;2024-03-08T11:08:55;18.90;69.50
22108;DHT22;11220;48.812;9.128;2024-03-08T11:11:29;18.90;69.50
22108;DHT22;11220;48.812;9.128;2024-03-08T11:13:58;18.90;69.50
22108;DHT22;11220;48.812;9.128;2024-03-08T11:18:59;19.00;69.60
22108;DHT22;11220;48.812;9.128;2024-03-08T11:21:33;19.00;69.60
22108;DHT22;11220;48.812;9.128;2024-03-08T11:24:06;19.00;69.70
22108;DHT22;11220;48.812;9.128;2024-03-08T11:26:31;19.00;69.90
22108;DHT22;11220;48.812;9.128;2024-03-08T11:29:32;19.00;70.20
22108;DHT22;11220;48.812;9.128;2024-03-08T11:32:11;19.00;70.40
22108;DHT22;11220;48.812;9.128;2024-03-08T11:34:38;19.00;70.70
22108;DHT22;11220;48.812;9.128;2024-03-08T11:37:06;19.00;70.90
22108;DHT22;11220;48.812;9.128;2024-03-08T11:39:39;19.00;71.00
22108;DHT22;11220;48.812;9.128;2024-03-08T11:42:05;19.00;71.20
22108;DHT22;11220;48.812;9.128;2024-03-08T11:44:32;19.00;71.30
22108;DHT22;11220;48.812;9.128;2024-03-08T11:46:57;19.00;71.40
22108;DHT22;11220;48.812;9.128;2024-03-08T11:49:23;19.00;71.60
22108;DHT22;11220;48.812;9.128;2024-03-08T11:51:52;19.00;71.70
22108;DHT22;11220;48.812;9.128;2024-03-08T11:54:18;19.00;71.80
22108;DHT22;11220;48.812;9.128;2024-03-08T11:56:44;19.00;71.90
22108;DHT22;11220;48.812;9.128;2024-03-08T11:59:12;19.00;71.80
22108;DHT22;11220;48.812;9.128;2024-03-08T12:01:38;19.00;71.90
22108;DHT22;11220;48.812;9.128;2024-03-08T12:04:04;19.00;72.00
22108;DHT22;11220;48.812;9.128;2024-03-08T12:06:38;19.00;72.10
22108;DHT22;11220;48.812;9.128;2024-03-08T12:09:13;19.10;72.30
22108;DHT22;11220;48.812;9.128;2024-03-08T12:11:40;19.10;72.30
22108;DHT22;11220;48.812;9.128;2024-03-08T12:14:06;19.00;72.40
22108;DHT22;11220;48.812;9.128;2024-03-08T12:16:32;19.10;72.10
22108;DHT22;11220;48.812;9.128;2024-03-08T12:18:58;19.00;71.90
22108;DHT22;11220;48.812;9.128;2024-03-08T12:21:26;19.00;72.40
22108;DHT22;11220;48.812;9.128;2024-03-08T12:24:07;19.00;72.60
22108;DHT22;11220;48.812;9.128;2024-03-08T12:26:38;19.10;72.80
22108;DHT22;11220;48.812;9.128;2024-03-08T12:29:23;19.10;72.90
22108;DHT22;11220;48.812;9.128;2024-03-08T12:31:57;19.10;73.10
22108;DHT22;11220;48.812;9.128;2024-03-08T12:34:24;19.10;73.20
22108;DHT22;11220;48.812;9.128;2024-03-08T12:36:51;19.10;73.20
22108;DHT22;11220;48.812;9.128;2024-03-08T12:39:19;19.10;73.30
22108;DHT22;11220;48.812;9.128;2024-03-08T12:41:52;19.20;73.40
22108;DHT22;11220;48.812;9.128;2024-03-08T12:44:18;19.20;73.60
22108;DHT22;11220;48.812;9.128;2024-03-08T12:46:44;19.20;73.70
22108;DHT22;11220;48.812;9.128;2024-03-08T12:49:10;19.20;73.80
22108;DHT22;11220;48.812;9.128;2024-03-08T12:51:38;19.20;74.00
22108;DHT22;11220;48.812;9.128;2024-03-08T12:54:05;19.30;74.20
22108;DHT22;11220;48.812;9.128;2024-03-08T12:56:33;19.30;74.40
22108;DHT22;11220;48.812;9.128;2024-03-08T12:59:00;19.30;74.80
22108;DHT22;11220;48.812;9.128;2024-03-08T13:01:26;19.40;75.20
22108;DHT22;11220;48.812;9.128;2024-03-08T13:03:56;19.40;75.60
22108;DHT22;11220;48.812;9.128;2024-03-08T13:06:22;19.50;76.20
22108;DHT22;11220;48.812;9.128;2024-03-08T13:08:53;19.50;76.80
22108;DHT22;11220;48.812;9.128;2024-03-08T13:11:19;19.50;77.30
22108;DHT22;11220;48.812;9.128;2024-03-08T13:13:45;19.60;77.90
22108;DHT22;11220;48.812;9.128;2024-03-08T13:16:11;19.60;78.30
22108;DHT22;11220;48.812;9.128;2024-03-08T13:18:41;19.60;78.50
22108;DHT22;11220;48.812;9.128;2024-03-08T13:21:10;19.60;78.70
22108;DHT22;11220;48.812;9.128;2024-03-08T13:23:37;19.70;78.70
22108;DHT22;11220;48.812;9.128;2024-03-08T13:26:09;19.70;78.90
22108;DHT22;11220;48.812;9.128;2024-03-08T13:28:35;19.70;78.80
22108;DHT22;11220;48.812;9.128;2024-03-08T13:31:04;19.80;78.90
22108;DHT22;11220;48.812;9.128;2024-03-08T13:33:35;19.80;78.90
22108;DHT22;11220;48.812;9.128;2024-03-08T13:36:02;19.80;78.80
22108;DHT22;11220;48.812;9.128;2024-03-08T13:38:32;19.90;78.60
22108;DHT22;11220;48.812;9.128;2024-03-08T13:40:58;19.90;78.30
22108;DHT22;11220;48.812;9.128;2024-03-08T13:43:24;19.90;77.90
22108;DHT22;11220;48.812;9.128;2024-03-08T13:45:49;20.00;77.50
22108;DHT22;11220;48.812;9.128;2024-03-08T13:48:15;20.00;77.20
22108;DHT22;11220;48.812;9.128;2024-03-08T13:50:41;20.00;77.20
22108;DHT22;11220;48.812;9.128;2024-03-08T13:53:07;20.10;77.20
22108;DHT22;11220;48.812;9.128;2024-03-08T13:55:35;20.10;77.00
22108;DHT22;11220;48.812;9.128;2024-03-08T13:58:00;20.10;77.00
22108;DHT22;11220;48.812;9.128;2024-03-08T14:00:26;20.20;76.80
22108;DHT22;11220;48.812;9.128;2024-03-08T14:02:58;20.20;76.80
22108;DHT22;11220;48.812;9.128;2024-03-08T14:05:24;20.30;76.70
22108;DHT22;11220;48.812;9.128;2024-03-08T14:07:49;20.30;76.70
22108;DHT22;11220;48.812;9.128;2024-03-08T14:10:15;20.40;76.50
22108;DHT22;11220;48.812;9.128;2024-03-08T14:12:41;20.40;76.30
22108;DHT22;11220;48.812;9.128;2024-03-08T14:15:09;20.50;76.20
22108;DHT22;11220;48.812;9.128;2024-03-08T14:17:36;20.50;76.10
22108;DHT22;11220;48.812;9.128;2024-03-08T14:20:03;20.50;75.90
22108;DHT22;11220;48.812;9.128;2024-03-08T14:22:29;20.60;75.80
22108;DHT22;11220;48.812;9.128;2024-03-08T14:24:57;20.60;75.60
22108;DHT22;11220;48.812;9.128;2024-03-08T14:27:22;20.70;75.60
22108;DHT22;11220;48.812;9.128;2024-03-08T14:29:48;20.70;75.20
22108;DHT22;11220;48.812;9.128;2024-03-08T14:32:13;20.80;75.20
22108;DHT22;11220;48.812;9.128;2024-03-08T14:34:39;20.80;75.00
22108;DHT22;11220;48.812;9.128;2024-03-08T14:37:05;20.80;74.80
22108;DHT22;11220;48.812;9.128;2024-03-08T14:39:36;20.90;74.70
22108;DHT22;11220;48.812;9.128;2024-03-08T14:42:02;20.90;74.50
22108;DHT22;11220;48.812;9.128;2024-03-08T14:44:28;20.90;74.40
22108;DHT22;11220;48.812;9.128;2024-03-08T14:46:58;21.00;74.40
22108;DHT22;11220;48.812;9.128;2024-03-08T14:49:24;21.10;74.30
22108;DHT22;11220;48.812;9.128;2024-03-08T14:51:53;21.10;74.10
22108;DHT22;11220;48.812;9.128;2024-03-08T14:54:19;21.10;73.90
22108;DHT22;11220;48.812;9.128;2024-03-08T14:56:48;21.10;73.70
22108;DHT22;11220;48.812;9.128;2024-03-08T14:59:15;21.20;73.20
22108;DHT22;11220;48.812;9.128;2024-03-08T15:01:40;21.20;72.70
22108;DHT22;11220;48.812;9.128;2024-03-08T15:04:09;21.20;72.10
22108;DHT22;11220;48.812;9.128;2024-03-08T15:06:36;21.20;71.60
22108;DHT22;11220;48.812;9.128;2024-03-08T15:09:03;21.30;71.30
22108;DHT22;11220;48.812;9.128;2024-03-08T15:11:45;21.30;70.90
22108;DHT22;11220;48.812;9.128;2024-03-08T15:14:11;21.30;70.50
22108;DHT22;11220;48.812;9.128;2024-03-08T15:16:40;21.30;70.20
22108;DHT22;11220;48.812;9.128;2024-03-08T15:19:06;21.30;69.80
22108;DHT22;11220;48.812;9.128;2024-03-08T15:21:32;21.40;69.80
22108;DHT22;11220;48.812;9.128;2024-03-08T15:23:57;21.40;69.70
22108;DHT22;11220;48.812;9.128;2024-03-08T15:26:23;21.40;69.70
22108;DHT22;11220;48.812;9.128;2024-03-08T15:28:51;21.40;70.00
22108;DHT22;11220;48.812;9.128;2024-03-08T15:31:17;21.40;70.00
22108;DHT22;11220;48.812;9.128;2024-03-08T15:33:44;21.40;69.90
22108;DHT22;11220;48.812;9.128;2024-03-08T15:36:18;21.40;69.90